createdAt,value
2022-12-08T00:01:32.690Z,150317.13
2022-12-08T00:04:03.844Z,150321.00
2022-12-08T00:06:48.206Z,150310.72
2022-12-08T00:09:26.907Z,150304.28
2022-12-08T00:12:00.866Z,150296.59
2022-12-08T00:14:32.915Z,150281.19
2022-12-08T00:17:04.016Z,150288.88
2022-12-08T00:19:35.016Z,150273.47
2022-12-08T00:22:05.894Z,150261.94
2022-12-08T00:24:41.353Z,150245.22
2022-12-08T00:27:13.929Z,150232.41
2022-12-08T00:29:46.378Z,150214.41
2022-12-08T00:32:16.673Z,150202.88
2022-12-08T00:34:46.889Z,150193.88
2022-12-08T00:37:17.443Z,150186.16
2022-12-08T00:39:50.204Z,150174.63
2022-12-08T00:42:20.301Z,150186.16
2022-12-08T00:44:50.367Z,150173.38
2022-12-08T00:47:24.820Z,150159.25
2022-12-08T00:49:55.522Z,150147.66
2022-12-08T00:52:25.556Z,150141.25
2022-12-08T00:54:58.217Z,150150.25
2022-12-08T00:57:28.637Z,150157.91
2022-12-08T00:59:58.986Z,150148.97
2022-12-08T01:02:29.154Z,150152.78
2022-12-08T01:04:59.357Z,150163.09
2022-12-08T01:07:29.744Z,150181.03
2022-12-08T01:10:03.545Z,150174.63
2022-12-08T01:12:33.982Z,150174.63
2022-12-08T01:15:04.278Z,150179.75
2022-12-08T01:17:34.427Z,150187.44
2022-12-08T01:20:05.265Z,150192.63
2022-12-08T01:22:38.073Z,150192.63
2022-12-08T01:25:12.153Z,150200.28
2022-12-08T01:27:43.018Z,150206.69
2022-12-08T01:30:15.079Z,150213.16
2022-12-08T01:32:45.264Z,150233.69
2022-12-08T01:35:15.624Z,150229.81
2022-12-08T01:37:45.694Z,150258.06
2022-12-08T01:40:18.716Z,150268.34
2022-12-08T01:42:48.963Z,150291.47
2022-12-08T01:45:26.022Z,150288.88
2022-12-08T01:48:00.774Z,150279.88
2022-12-08T01:50:31.820Z,150279.88
2022-12-08T01:53:05.128Z,150277.34
2022-12-08T01:55:44.383Z,150287.59
2022-12-08T01:58:20.025Z,150290.16
2022-12-08T02:00:51.827Z,150304.28
2022-12-08T02:03:29.206Z,150309.41
2022-12-08T02:06:00.337Z,150327.41
2022-12-08T02:08:31.541Z,150322.28
2022-12-08T02:11:04.755Z,150330.00
2022-12-08T02:13:35.974Z,150326.13
2022-12-08T02:16:12.819Z,150333.81
2022-12-08T02:19:29.115Z,150344.09
2022-12-08T02:21:55.843Z,150335.13
2022-12-08T02:24:36.432Z,150337.69
2022-12-08T02:27:31.242Z,150345.41
2022-12-08T02:30:28.335Z,150346.69
2022-12-08T02:33:26.304Z,150350.53
2022-12-08T02:36:03.116Z,150351.81
2022-12-08T02:38:43.511Z,150353.09
2022-12-08T02:41:24.063Z,150358.22
2022-12-08T02:44:00.425Z,150355.69
2022-12-08T02:46:36.163Z,150363.34
2022-12-08T02:49:07.586Z,150372.34
2022-12-08T02:51:42.093Z,150373.63
2022-12-08T02:54:12.953Z,150374.94
2022-12-08T02:57:09.860Z,150378.75
2022-12-08T02:59:54.551Z,150380.09
2022-12-08T03:02:48.195Z,150387.75
2022-12-08T03:05:32.289Z,150405.75
2022-12-08T03:08:06.482Z,150412.16
2022-12-08T03:10:43.866Z,150414.75
2022-12-08T03:13:19.470Z,150418.63
2022-12-08T03:15:54.233Z,150423.75
2022-12-08T03:18:30.059Z,150431.44
2022-12-08T03:21:00.836Z,150453.31
2022-12-08T03:23:36.057Z,150471.25
2022-12-08T03:26:12.540Z,150461.00
2022-12-08T03:28:43.535Z,150468.72
2022-12-08T03:31:16.328Z,150472.59
2022-12-08T03:33:51.206Z,150469.97
2022-12-08T03:36:22.768Z,150472.59
2022-12-08T03:38:57.405Z,150469.97
2022-12-08T03:41:27.770Z,150469.97
2022-12-08T03:44:00.374Z,150471.25
2022-12-08T03:46:32.275Z,150476.41
2022-12-08T03:49:02.624Z,150476.41
2022-12-08T03:51:33.587Z,150476.41
2022-12-08T03:54:07.177Z,150473.84
2022-12-08T03:56:39.299Z,150480.25
2022-12-08T03:59:11.288Z,150489.25
2022-12-08T04:01:41.352Z,150489.25
2022-12-08T04:04:11.995Z,150485.41
2022-12-08T04:06:43.393Z,150488.00
2022-12-08T04:09:16.823Z,150490.53
2022-12-08T04:11:47.261Z,150488.00
2022-12-08T04:14:17.882Z,150484.13
2022-12-08T04:16:48.395Z,150484.13
2022-12-08T04:19:20.007Z,150477.72
2022-12-08T04:21:50.799Z,150473.84
2022-12-08T04:24:24.695Z,150471.25
2022-12-08T04:26:54.591Z,150472.59
2022-12-08T04:29:24.885Z,150471.25
2022-12-08T04:31:55.220Z,150466.13
2022-12-08T04:34:25.522Z,150469.97
2022-12-08T04:36:55.747Z,150476.41
2022-12-08T04:39:28.920Z,150486.66
2022-12-08T04:41:59.214Z,150486.66
2022-12-08T04:44:29.453Z,150485.41
2022-12-08T04:46:59.671Z,150488.00
2022-12-08T04:49:30.175Z,150486.66
2022-12-08T04:52:00.328Z,150489.25
2022-12-08T04:54:33.079Z,150486.66
2022-12-08T04:57:03.600Z,150482.84
2022-12-08T04:59:33.898Z,150489.25
2022-12-08T05:02:04.633Z,150488.00
2022-12-08T05:04:36.053Z,150486.66
2022-12-08T05:07:06.216Z,150485.41
2022-12-08T05:09:40.061Z,150473.84
2022-12-08T05:12:10.087Z,150479.00
2022-12-08T05:14:40.612Z,150476.41
2022-12-08T05:17:10.871Z,150468.72
2022-12-08T05:19:41.902Z,150472.59
2022-12-08T05:22:13.352Z,150467.44
2022-12-08T05:24:47.853Z,150469.97
2022-12-08T05:27:18.946Z,150469.97
2022-12-08T05:29:50.847Z,150475.13
2022-12-08T05:32:21.182Z,150475.13
2022-12-08T05:34:51.591Z,150472.59
2022-12-08T05:37:22.156Z,150473.84
2022-12-08T05:39:55.470Z,150481.53
2022-12-08T05:42:25.844Z,150479.00
2022-12-08T05:45:07.414Z,150479.00
2022-12-08T05:47:37.985Z,150477.72
2022-12-08T05:50:10.647Z,150480.25
2022-12-08T05:52:42.071Z,150480.25
2022-12-08T05:55:15.314Z,150476.41
2022-12-08T05:57:45.879Z,150477.72
2022-12-08T06:00:17.505Z,150469.97
2022-12-08T06:02:47.928Z,150468.72
2022-12-08T06:05:18.718Z,150468.72
2022-12-08T06:07:50.078Z,150471.25
2022-12-08T06:10:23.004Z,150475.13
2022-12-08T06:12:53.513Z,150473.84
2022-12-08T06:15:24.217Z,150479.00
2022-12-08T06:17:54.573Z,150491.84
2022-12-08T06:20:25.341Z,150502.13
2022-12-08T06:22:55.971Z,150512.41
2022-12-08T06:25:29.306Z,150527.81
2022-12-08T06:28:00.826Z,150543.22
2022-12-08T06:30:32.454Z,150563.78
2022-12-08T06:33:05.364Z,150565.06
2022-12-08T06:35:35.914Z,150570.19
2022-12-08T06:38:06.200Z,150586.94
2022-12-08T06:40:42.657Z,150597.22
2022-12-08T06:43:14.519Z,150610.09
2022-12-08T06:45:45.987Z,150620.38
2022-12-08T06:48:16.676Z,150649.94
2022-12-08T06:50:47.076Z,150646.06
2022-12-08T06:53:18.434Z,150666.63
2022-12-08T06:55:59.978Z,150666.63
2022-12-08T06:58:30.937Z,150680.78
2022-12-08T07:01:02.006Z,150683.38
2022-12-08T07:03:32.488Z,150684.63
2022-12-08T07:06:04.299Z,150692.31
2022-12-08T07:08:35.081Z,150698.78
2022-12-08T07:11:19.657Z,150710.34
2022-12-08T07:13:51.650Z,150721.91
2022-12-08T07:16:22.482Z,150730.91
2022-12-08T07:18:53.322Z,150747.66
2022-12-08T07:21:23.816Z,150755.34
2022-12-08T07:23:57.833Z,150769.50
2022-12-08T07:26:31.492Z,150781.06
2022-12-08T07:29:04.043Z,150788.78
2022-12-08T07:31:34.388Z,150793.94
2022-12-08T07:34:04.990Z,150810.63
2022-12-08T07:36:36.503Z,150836.41
2022-12-08T07:39:07.399Z,150837.66
2022-12-08T07:41:40.404Z,150836.41
2022-12-08T07:44:11.019Z,150864.66
2022-12-08T07:46:41.445Z,150871.13
2022-12-08T07:49:12.020Z,150873.66
2022-12-08T07:51:42.511Z,150900.72
2022-12-08T07:54:15.927Z,150913.53
2022-12-08T07:56:49.303Z,150931.56
2022-12-08T07:59:19.694Z,150949.59
2022-12-08T08:02:11.737Z,150970.19
2022-12-08T08:04:41.762Z,150993.38
2022-12-08T08:07:12.187Z,150997.19
2022-12-08T08:09:42.681Z,151015.22
2022-12-08T08:12:31.324Z,151019.09
2022-12-08T08:15:02.774Z,151035.81
2022-12-08T08:17:33.712Z,151051.25
2022-12-08T08:20:04.597Z,151065.41
2022-12-08T08:22:35.778Z,151061.53
2022-12-08T08:25:06.352Z,151065.41
2022-12-08T08:27:39.469Z,151052.56
2022-12-08T08:30:16.568Z,151049.97
2022-12-08T08:32:50.867Z,151061.53
2022-12-08T08:35:21.386Z,151065.41
2022-12-08T08:37:51.738Z,151071.88
2022-12-08T08:40:21.942Z,151062.88
2022-12-08T08:42:54.803Z,151057.72
2022-12-08T08:45:26.188Z,151078.31
2022-12-08T08:47:56.670Z,151068.00
2022-12-08T08:50:32.857Z,151078.31
2022-12-08T08:53:06.290Z,151069.28
2022-12-08T08:55:36.857Z,151073.16
2022-12-08T08:58:09.932Z,151065.41
2022-12-08T09:00:46.209Z,151091.16
2022-12-08T09:03:16.783Z,151134.91
2022-12-08T09:05:47.085Z,151150.41
2022-12-08T09:08:17.866Z,151147.81
2022-12-08T09:10:48.327Z,151174.84
2022-12-08T09:13:22.525Z,151190.31
2022-12-08T09:15:55.139Z,151201.91
2022-12-08T09:18:25.542Z,151178.72
2022-12-08T09:20:56.470Z,151189.00
2022-12-08T09:23:32.117Z,151192.88
2022-12-08T09:26:07.250Z,151225.09
2022-12-08T09:28:46.812Z,151235.38
2022-12-08T09:31:17.981Z,151236.66
2022-12-08T09:33:49.032Z,151232.78
2022-12-08T09:36:19.693Z,151221.22
2022-12-08T09:38:51.651Z,151208.31
2022-12-08T09:41:36.802Z,151208.31
2022-12-08T09:44:45.425Z,151225.09
2022-12-08T09:47:24.236Z,151221.22
2022-12-08T09:50:03.559Z,151216.06
2022-12-08T09:52:41.161Z,151189.00
2022-12-08T09:55:23.493Z,151201.91
2022-12-08T09:58:02.658Z,151199.31
2022-12-08T10:00:36.760Z,151209.66
2022-12-08T10:03:07.098Z,151230.25
2022-12-08T10:05:44.861Z,151254.72
2022-12-08T10:08:23.710Z,151285.63
2022-12-08T10:10:59.989Z,151277.88
2022-12-08T10:13:39.575Z,151286.88
2022-12-08T10:16:29.754Z,151317.84
2022-12-08T10:19:05.985Z,151279.19
2022-12-08T10:21:36.889Z,151275.31
2022-12-08T10:24:14.775Z,151289.50
2022-12-08T10:26:45.215Z,151310.09
2022-12-08T10:29:16.874Z,151351.31
2022-12-08T10:31:50.091Z,151371.94
2022-12-08T10:34:23.728Z,151352.63
2022-12-08T10:36:56.284Z,151342.31
2022-12-08T10:39:34.594Z,151387.41
2022-12-08T10:42:10.809Z,151389.97
2022-12-08T10:44:57.863Z,151415.72
2022-12-08T10:47:33.331Z,151462.16
2022-12-08T10:50:16.006Z,151459.53
2022-12-08T10:52:46.539Z,151508.53
2022-12-08T10:55:22.237Z,151508.53
2022-12-08T10:57:53.747Z,151511.13
2022-12-08T11:00:27.915Z,151530.47
2022-12-08T11:03:03.924Z,151552.34
2022-12-08T11:05:37.211Z,151518.84
2022-12-08T11:08:09.007Z,151525.31
2022-12-08T11:10:46.635Z,151526.59
2022-12-08T11:13:26.424Z,151511.13
2022-12-08T11:15:59.338Z,151518.84
2022-12-08T11:18:42.386Z,151534.28
2022-12-08T11:21:16.375Z,151503.38
2022-12-08T11:23:50.928Z,151598.81
2022-12-08T11:26:30.364Z,151529.13
2022-12-08T11:29:00.825Z,151517.56
2022-12-08T11:31:35.016Z,151466.03
2022-12-08T11:34:10.074Z,151489.19
2022-12-08T11:36:42.771Z,151526.59
2022-12-08T11:39:16.265Z,151525.31
2022-12-08T11:41:49.660Z,151591.03
2022-12-08T11:44:30.636Z,151660.66
2022-12-08T11:47:04.606Z,151668.44
2022-12-08T11:49:40.705Z,151645.19
2022-12-08T11:52:24.624Z,151652.97
2022-12-08T11:55:01.397Z,151627.13
2022-12-08T11:57:33.479Z,151633.63
2022-12-08T12:00:07.832Z,151624.56
2022-12-08T12:02:49.131Z,151632.28
2022-12-08T12:06:03.385Z,151612.94
2022-12-08T12:08:43.411Z,151628.47
2022-12-08T12:11:41.946Z,151624.56
2022-12-08T12:14:29.913Z,151628.47
2022-12-08T12:17:08.789Z,151646.47
2022-12-08T12:19:42.833Z,151619.44
2022-12-08T12:22:19.847Z,151621.97
2022-12-08T12:24:53.345Z,151650.34
2022-12-08T12:27:28.766Z,151650.34
2022-12-08T12:30:02.360Z,151647.81
2022-12-08T12:32:48.923Z,151655.50
2022-12-08T12:35:27.317Z,151620.69
2022-12-08T12:38:05.669Z,151650.34
2022-12-08T12:40:44.990Z,151621.97
2022-12-08T12:43:32.530Z,151629.72
2022-12-08T12:46:32.802Z,151583.28
2022-12-08T12:49:32.719Z,151592.31
2022-12-08T12:52:03.096Z,151585.88
2022-12-08T12:54:36.050Z,151614.25
2022-12-08T12:57:24.991Z,151585.88
2022-12-08T13:00:11.470Z,151580.72
2022-12-08T13:02:49.974Z,151588.44
2022-12-08T13:05:25.033Z,151580.72
2022-12-08T13:07:59.250Z,151588.44
2022-12-08T13:10:34.533Z,151562.66
2022-12-08T13:13:10.748Z,151549.81
2022-12-08T13:15:43.736Z,151560.13
2022-12-08T13:18:22.898Z,151542.06
2022-12-08T13:20:56.745Z,151527.88
2022-12-08T13:23:31.687Z,151539.50
2022-12-08T13:26:27.089Z,151531.75
2022-12-08T13:29:25.551Z,151518.84
2022-12-08T13:31:57.286Z,151513.69
2022-12-08T13:34:37.819Z,151508.53
2022-12-08T13:37:28.579Z,151526.59
2022-12-08T13:40:04.320Z,151525.31
2022-12-08T13:42:47.299Z,151524.00
2022-12-08T13:48:35.115Z,151511.13
2022-12-08T13:53:34.173Z,151513.69
2022-12-08T13:57:10.790Z,151504.66
2022-12-08T13:59:49.537Z,151496.94
2022-12-08T14:02:31.300Z,151487.91
2022-12-08T14:05:18.238Z,151494.34
2022-12-08T14:07:51.928Z,151480.22
2022-12-08T14:10:27.859Z,151480.22
2022-12-08T14:13:02.877Z,151486.63
2022-12-08T14:15:38.739Z,151467.31
2022-12-08T14:18:26.618Z,151451.84
2022-12-08T14:21:21.634Z,151450.50
2022-12-08T14:23:52.407Z,151442.81
2022-12-08T14:26:23.525Z,151405.41
2022-12-08T14:28:58.217Z,151397.72
2022-12-08T14:31:32.404Z,151400.25
2022-12-08T14:34:02.912Z,151391.25
2022-12-08T14:36:34.335Z,151370.63
2022-12-08T14:39:05.918Z,151366.75
2022-12-08T14:41:36.794Z,151366.75
2022-12-08T14:44:27.823Z,151353.91
2022-12-08T14:47:11.744Z,151357.78
2022-12-08T14:49:44.768Z,151346.16
2022-12-08T14:52:17.804Z,151337.13
2022-12-08T14:54:48.858Z,151312.66
2022-12-08T14:57:22.111Z,151302.34
2022-12-08T14:59:53.658Z,151316.53
2022-12-08T15:02:35.516Z,151312.66
2022-12-08T15:05:13.748Z,151301.06
2022-12-08T15:07:50.402Z,151308.81
2022-12-08T15:10:29.047Z,151293.38
2022-12-08T15:13:09.894Z,151297.19
2022-12-08T15:15:53.088Z,151272.72
2022-12-08T15:18:35.257Z,151265.00
2022-12-08T15:21:10.004Z,151235.38
2022-12-08T15:23:45.897Z,151230.25
2022-12-08T15:26:23.489Z,151231.53
2022-12-08T15:28:53.992Z,151183.84
2022-12-08T15:31:25.239Z,151208.31
2022-12-08T15:33:58.490Z,151196.75
2022-12-08T15:36:29.227Z,151177.44
2022-12-08T15:38:59.614Z,151152.97
2022-12-08T15:41:30.076Z,151163.25
2022-12-08T15:44:00.369Z,151156.84
2022-12-08T15:46:30.950Z,151155.56
2022-12-08T15:49:04.300Z,151150.41
2022-12-08T15:51:37.356Z,151158.13
2022-12-08T15:54:07.959Z,151137.53
2022-12-08T15:56:50.606Z,151134.91
2022-12-08T15:59:29.627Z,151122.06
2022-12-08T16:02:00.002Z,151137.53
2022-12-08T16:07:28.335Z,151109.19
2022-12-08T16:10:00.320Z,151107.91
2022-12-08T16:15:59.209Z,151078.31
2022-12-08T16:18:30.510Z,151044.81
2022-12-08T16:21:22.422Z,151035.81
2022-12-08T16:23:58.034Z,151021.66
2022-12-08T16:27:28.477Z,151008.81
2022-12-08T16:29:23.675Z,151016.50
2022-12-08T16:31:54.170Z,151010.06
2022-12-08T16:34:24.672Z,150972.72
2022-12-08T16:36:57.290Z,150975.34
2022-12-08T16:39:27.660Z,150989.50
2022-12-08T16:42:10.079Z,150985.63
2022-12-08T16:44:44.050Z,150993.38
2022-12-08T16:47:15.194Z,150986.91
2022-12-08T16:49:48.180Z,150983.03
2022-12-08T16:52:20.921Z,150974.06
2022-12-08T16:54:50.927Z,150984.34
2022-12-08T16:57:21.393Z,150985.63
2022-12-08T16:59:51.713Z,150977.88
2022-12-08T17:02:24.009Z,150968.91
2022-12-08T17:04:54.451Z,150962.44
2022-12-08T17:07:28.858Z,150952.16
2022-12-08T17:09:59.111Z,150968.91
2022-12-08T17:12:29.305Z,150957.31
2022-12-08T17:14:59.379Z,150966.31
2022-12-08T17:17:29.690Z,150968.91
2022-12-08T17:20:00.017Z,150970.19
2022-12-08T17:22:33.165Z,150957.31
2022-12-08T17:25:04.442Z,150948.28
2022-12-08T17:27:35.407Z,150945.72
2022-12-08T17:30:06.008Z,150945.72
2022-12-08T17:32:36.480Z,150932.84
2022-12-08T17:35:07.022Z,150952.16
2022-12-08T17:37:44.215Z,150962.44
2022-12-08T17:40:15.124Z,150953.44
2022-12-08T17:42:47.309Z,150941.88
2022-12-08T17:45:18.124Z,150957.31
2022-12-08T17:47:48.452Z,150936.72
2022-12-08T17:50:18.703Z,150956.03
2022-12-08T17:52:53.733Z,150948.28
2022-12-08T17:55:24.186Z,150950.88
2022-12-08T17:57:54.467Z,150948.28
2022-12-08T18:00:26.400Z,150939.31
2022-12-08T18:02:56.835Z,150954.75
2022-12-08T18:05:27.415Z,150954.75
2022-12-08T18:08:02.130Z,150949.59
2022-12-08T18:10:32.658Z,150944.47
2022-12-08T18:13:03.071Z,150941.88
2022-12-08T18:15:38.985Z,150941.88
2022-12-08T18:18:09.975Z,150940.59
2022-12-08T18:20:42.585Z,150949.59
2022-12-08T18:23:15.977Z,150945.72
2022-12-08T18:25:47.450Z,150940.59
2022-12-08T18:28:20.079Z,150945.72
2022-12-08T18:30:51.300Z,150943.13
2022-12-08T18:33:24.405Z,150940.59
2022-12-08T18:35:54.819Z,150939.31
2022-12-08T18:38:27.819Z,150936.72
2022-12-08T18:40:57.894Z,150934.16
2022-12-08T18:43:27.954Z,150934.16
2022-12-08T18:46:04.736Z,150935.44
2022-12-08T18:48:34.811Z,150935.44
2022-12-08T18:51:05.982Z,150931.56
2022-12-08T18:53:39.826Z,150928.97
2022-12-08T18:56:10.607Z,150923.84
2022-12-08T18:58:40.680Z,150923.84
2022-12-08T19:01:17.369Z,150941.88
2022-12-08T19:04:05.028Z,150944.47
2022-12-08T19:06:41.317Z,150936.72
2022-12-08T19:09:16.144Z,150936.72
2022-12-08T19:11:47.169Z,150928.97
2022-12-08T19:14:21.265Z,150917.41
2022-12-08T19:16:54.819Z,150931.56
2022-12-08T19:19:25.045Z,150925.16
2022-12-08T19:21:55.498Z,150916.16
2022-12-08T19:24:29.093Z,150913.53
2022-12-08T19:26:59.300Z,150908.41
2022-12-08T19:29:29.718Z,150905.84
2022-12-08T19:32:00.675Z,150920.00
2022-12-08T19:34:31.088Z,150912.28
2022-12-08T19:37:01.597Z,150912.28
2022-12-08T19:39:46.759Z,150899.38
2022-12-08T19:42:32.099Z,150905.84
2022-12-08T19:45:07.707Z,150909.72
2022-12-08T19:47:38.187Z,150899.38
2022-12-08T19:50:25.388Z,150900.72
2022-12-08T19:53:05.062Z,150895.56
2022-12-08T19:55:39.661Z,150890.41
2022-12-08T19:58:10.963Z,150898.13
2022-12-08T20:00:54.217Z,150892.97
2022-12-08T20:03:28.755Z,150885.28
2022-12-08T20:05:59.700Z,150903.25
2022-12-08T20:08:32.781Z,150909.72
2022-12-08T20:11:17.377Z,150913.53
2022-12-08T20:13:53.668Z,150917.41
2022-12-08T20:16:24.300Z,150905.84
2022-12-08T20:18:56.437Z,150907.13
2022-12-08T20:21:41.339Z,150917.41
2022-12-08T20:24:14.288Z,150909.72
2022-12-08T20:26:48.247Z,150909.72
2022-12-08T20:29:21.680Z,150913.53
2022-12-08T20:31:51.893Z,150908.41
2022-12-08T20:34:22.965Z,150920.00
2022-12-08T20:36:53.922Z,150925.16
2022-12-08T20:39:25.642Z,150918.69
2022-12-08T20:42:00.873Z,150925.16
2022-12-08T20:44:31.729Z,150923.84
2022-12-08T20:47:15.251Z,150895.56
2022-12-08T20:50:08.738Z,150882.69
2022-12-08T20:52:41.826Z,150894.25
2022-12-08T20:55:32.353Z,150885.28
2022-12-08T20:58:12.968Z,150872.41
2022-12-08T21:01:18.254Z,150880.13
2022-12-08T21:03:52.882Z,150874.94
2022-12-08T21:06:27.809Z,150885.28
2022-12-08T21:08:58.188Z,150880.13
2022-12-08T21:11:31.736Z,150882.69
2022-12-08T21:14:04.819Z,150890.41
2022-12-08T21:16:34.924Z,150892.97
2022-12-08T21:19:10.275Z,150881.41
2022-12-08T21:21:41.069Z,150886.56
2022-12-08T21:24:34.389Z,150874.94
2022-12-08T21:27:16.748Z,150878.81
2022-12-08T21:29:53.831Z,150876.25
2022-12-08T21:32:29.965Z,150883.97
2022-12-08T21:35:00.948Z,150887.81
2022-12-08T21:37:31.103Z,150903.25
2022-12-08T21:40:01.386Z,150901.97
2022-12-08T21:42:43.962Z,150890.41
2022-12-08T21:45:22.662Z,150890.41
2022-12-08T21:48:12.270Z,150905.84
2022-12-08T21:55:21.680Z,150878.81
2022-12-08T21:58:05.906Z,150876.25
2022-12-08T22:00:39.643Z,150880.13
2022-12-08T22:03:10.202Z,150883.97
2022-12-08T22:05:40.599Z,150864.66
2022-12-08T22:08:11.223Z,150863.38
2022-12-08T22:10:41.662Z,150871.13
2022-12-08T22:13:12.284Z,150878.81
2022-12-08T22:16:05.852Z,150890.41
2022-12-08T22:18:37.450Z,150886.56
2022-12-08T22:21:17.200Z,150894.25
2022-12-08T22:23:58.713Z,150899.38
2022-12-08T22:26:30.192Z,150891.69
2022-12-08T22:29:08.468Z,150874.94
2022-12-08T22:31:41.669Z,150872.41
2022-12-08T22:34:12.469Z,150886.56
2022-12-08T22:36:42.654Z,150886.56
2022-12-08T22:39:21.444Z,150883.97
2022-12-08T22:41:57.742Z,150887.81
2022-12-08T22:44:29.337Z,150892.97
2022-12-08T22:47:02.953Z,150895.56
2022-12-08T22:53:57.016Z,150881.41
2022-12-08T23:00:37.978Z,150900.72
2022-12-08T23:03:17.791Z,150898.13
2022-12-08T23:09:44.594Z,150907.13
2022-12-08T23:12:14.660Z,150913.53
2022-12-08T23:14:44.663Z,150912.28
2022-12-08T23:17:14.770Z,150921.28
2022-12-08T23:19:47.929Z,150923.84
2022-12-08T23:22:18.159Z,150927.69
2022-12-08T23:24:48.203Z,150926.44
2022-12-08T23:27:18.286Z,150928.97
2022-12-08T23:29:48.373Z,150932.84
2022-12-08T23:32:18.620Z,150931.56
2022-12-08T23:34:51.437Z,150931.56
2022-12-08T23:37:21.870Z,150931.56
2022-12-08T23:42:40.624Z,150940.59
2022-12-08T23:45:12.536Z,150932.84
2022-12-08T23:47:42.761Z,150931.56
2022-12-08T23:50:15.550Z,150932.84
2022-12-08T23:52:45.887Z,150934.16
2022-12-08T23:55:16.149Z,150943.13
2022-12-08T23:57:46.880Z,150947.00
